This is the latest recevied weather packets stored in our database for station/object KQ4HEI. If no packets are shown the sender has not sent any weather packets the latest 10 day(s).
| Time | Temp. | Humidity | Pressure | Rain* | Wind** | Luminosity | Snow |
|---|---|---|---|---|---|---|---|
| 1777485091 | 31.11° C | 54% | 1013.6 hPa | 0 mm | - | - | - |
| 1777484492 | 31.11° C | 54% | 1013.9 hPa | 0 mm | - | - | - |
| 1777483892 | 30° C | 56% | 1014.1 hPa | 0 mm | - | - | - |
| 1777483292 | 31.67° C | 53% | 1014.4 hPa | 0 mm | - | - | - |
| 1777482692 | 30.56° C | 55% | 1014.6 hPa | 0 mm | - | - | - |
| 1777482091 | 30.56° C | 55% | 1014.8 hPa | 0 mm | - | - | - |
| 1777481492 | 29.44° C | 61% | 1014.8 hPa | 0 mm | - | - | - |
| 1777480894 | 28.89° C | 62% | 1015 hPa | 0 mm | - | - | - |
| 1777480291 | 28.33° C | 65% | 1015 hPa | 0 mm | - | - | - |
| 1777479692 | 28.33° C | 65% | 1014.9 hPa | 0 mm | - | - | - |
| 1777479091 | 27.78° C | 69% | 1014.4 hPa | 0 mm | - | - | - |
| 1777478492 | 26.11° C | 74% | 1014.8 hPa | 0 mm | - | - | - |
| 1777477891 | 26.11° C | 71% | 1015.2 hPa | 0 mm | - | - | - |
| 1777477291 | 26.67° C | 69% | 1016.1 hPa | 0 mm | - | - | - |
| 1777476691 | 27.22° C | 68% | 1016.4 hPa | 0 mm | - | - | - |
| 1777476093 | 27.22° C | 67% | 1016.2 hPa | 0 mm | - | - | - |
| 1777475494 | 27.22° C | 67% | 1016.2 hPa | 0 mm | - | - | - |
| 1777474893 | 28.33° C | 65% | 1016.2 hPa | 0 mm | - | - | - |
| 1777474291 | 27.22° C | 69% | 1016.2 hPa | 0 mm | - | - | - |
| 1777473691 | 27.78° C | 66% | 1016.4 hPa | 0 mm | - | - | - |
| 1777473091 | 28.33° C | 66% | 1016.1 hPa | 0 mm | - | - | - |
| 1777472528 | 27.22° C | 67% | 1015.9 hPa | 0 mm | - | - | - |
| 1777472492 | 27.22° C | 67% | 1015.9 hPa | 0 mm | - | - | - |
| 1777471892 | 28.33° C | 66% | 1015.7 hPa | 0 mm | - | - | - |
| 1777471292 | 26.67° C | 71% | 1015.8 hPa | 0 mm | - | - | - |
* Rain latest hour (hover to see other rain measurements)
** Current wind speed in m/s (hover to see current wind gust speed)